Time;durP1;ratioP1;P1;durP2;ratioP2;P2;SDS_P1;SDS_P2;PMS_P1;PMS_P2;Temp;Humidity;BMP_temperature;BMP_pressure;BME280_temperature;BME280_humidity;BME280_pressure;Samples;Min_cycle;Max_cycle;Signal;HPM_P1;HPM_P2
2021/08/31 00:02:06;;;;;;;17.40;13.40;;;13.60;99.90;;;;;;5009825;28;20103;-57
2021/08/31 00:04:31;;;;;;;17.15;14.00;;;13.70;99.90;;;;;;5009920;28;20036;-58
2021/08/31 00:06:57;;;;;;;19.00;12.90;;;13.70;99.90;;;;;;5003607;28;20034;-57
2021/08/31 00:09:24;;;;;;;21.05;14.68;;;13.70;99.90;;;;;;5009108;28;20040;-57
2021/08/31 00:11:50;;;;;;;19.85;13.75;;;13.70;99.90;;;;;;5004386;28;20029;-56
2021/08/31 00:14:15;;;;;;;18.23;13.30;;;13.70;99.90;;;;;;5010411;28;20400;-57
2021/08/31 00:16:41;;;;;;;18.08;13.55;;;13.70;99.90;;;;;;5000816;28;20026;-57
2021/08/31 00:19:07;;;;;;;17.23;13.60;;;13.60;99.90;;;;;;5004139;28;20568;-58
2021/08/31 00:21:32;;;;;;;22.55;14.60;;;13.60;99.90;;;;;;5005107;28;20034;-57
2021/08/31 00:23:58;;;;;;;19.02;14.65;;;13.60;99.90;;;;;;5008057;28;20499;-58
2021/08/31 00:26:24;;;;;;;19.52;14.23;;;13.50;99.90;;;;;;5009686;28;20058;-56
2021/08/31 00:28:49;;;;;;;20.30;14.88;;;13.50;99.90;;;;;;5009487;28;20034;-58
2021/08/31 00:31:15;;;;;;;20.15;14.82;;;13.50;99.90;;;;;;5010771;28;20025;-58
2021/08/31 00:33:40;;;;;;;18.35;13.63;;;13.50;99.90;;;;;;5009163;28;20481;-58
2021/08/31 00:36:06;;;;;;;21.65;14.70;;;13.50;99.90;;;;;;5009023;28;20026;-54
2021/08/31 00:38:32;;;;;;;21.58;14.13;;;13.40;99.90;;;;;;5009433;28;20062;-58
2021/08/31 00:40:58;;;;;;;23.02;13.55;;;13.40;99.90;;;;;;4999115;28;20413;-58
2021/08/31 00:43:24;;;;;;;18.83;14.55;;;13.30;99.90;;;;;;5004863;28;20029;-55
2021/08/31 00:45:50;;;;;;;21.13;15.10;;;13.30;99.90;;;;;;5003186;28;20029;-57
2021/08/31 00:48:20;;;;;;;20.35;14.85;;;13.20;99.90;;;;;;5011236;28;20104;-57
2021/08/31 00:50:47;;;;;;;21.85;15.68;;;13.20;99.90;;;;;;5007318;28;20061;-56
2021/08/31 00:53:13;;;;;;;21.23;14.52;;;13.20;99.90;;;;;;5006580;28;20026;-55
2021/08/31 00:55:41;;;;;;;22.10;15.32;;;13.20;99.90;;;;;;5010109;28;20018;-53
2021/08/31 00:58:06;;;;;;;24.08;16.17;;;13.10;99.90;;;;;;5006937;28;20054;-56
2021/08/31 01:00:32;;;;;;;19.88;16.02;;;13.10;99.90;;;;;;5008236;28;20520;-57
2021/08/31 01:02:57;;;;;;;21.02;14.85;;;13.00;99.90;;;;;;5011623;28;20504;-58
2021/08/31 01:05:23;;;;;;;19.23;13.13;;;13.00;99.90;;;;;;5011022;28;20040;-57
2021/08/31 01:07:49;;;;;;;18.27;13.13;;;12.90;99.90;;;;;;5011275;28;20069;-58
2021/08/31 01:10:16;;;;;;;17.83;11.10;;;12.80;99.90;;;;;;5005898;28;20050;-58
2021/08/31 01:12:43;;;;;;;19.85;9.48;;;12.80;99.90;;;;;;5008408;28;20025;-56
2021/08/31 01:15:11;;;;;;;15.50;9.35;;;12.70;99.90;;;;;;5009520;28;20029;-56
2021/08/31 01:17:36;;;;;;;11.65;10.27;;;12.60;99.90;;;;;;5006654;28;20034;-56
2021/08/31 01:20:03;;;;;;;16.63;11.80;;;12.60;99.90;;;;;;5008727;28;20087;-58
2021/08/31 01:22:28;;;;;;;16.48;10.77;;;12.60;99.90;;;;;;5008685;28;20030;-56
2021/08/31 01:24:59;;;;;;;12.30;10.73;;;12.60;99.90;;;;;;5010592;28;20049;-56
2021/08/31 01:27:26;;;;;;;16.20;11.43;;;12.60;99.90;;;;;;5007599;28;20025;-58
2021/08/31 01:29:52;;;;;;;17.08;12.30;;;12.60;99.90;;;;;;5009165;28;20077;-58
2021/08/31 01:32:18;;;;;;;17.17;13.18;;;12.70;99.90;;;;;;5011017;28;20029;-59
2021/08/31 01:34:43;;;;;;;18.00;14.18;;;12.80;99.90;;;;;;5010882;28;20493;-56
2021/08/31 01:37:12;;;;;;;18.08;12.35;;;12.80;99.90;;;;;;5006019;28;20030;-57
2021/08/31 01:39:39;;;;;;;18.33;10.45;;;12.80;99.90;;;;;;5009760;28;20161;-61
2021/08/31 01:42:06;;;;;;;18.10;11.30;;;12.90;99.90;;;;;;5011146;28;20034;-53
2021/08/31 01:44:31;;;;;;;18.05;10.68;;;12.90;99.90;;;;;;5005212;28;20030;-54
2021/08/31 01:46:57;;;;;;;15.48;11.50;;;12.90;99.90;;;;;;5008240;28;20716;-53
2021/08/31 01:49:23;;;;;;;17.38;12.75;;;12.90;99.90;;;;;;5010396;28;20056;-56
2021/08/31 01:51:48;;;;;;;17.35;12.50;;;12.90;99.90;;;;;;5007117;28;20026;-57
2021/08/31 01:54:14;;;;;;;21.20;13.15;;;13.00;99.90;;;;;;5007994;28;20550;-56
2021/08/31 01:56:40;;;;;;;23.95;16.30;;;13.00;99.90;;;;;;5006717;28;20026;-58
2021/08/31 01:59:06;;;;;;;27.40;17.45;;;13.00;99.90;;;;;;5008132;28;20026;-55
2021/08/31 02:01:32;;;;;;;33.38;18.20;;;13.10;99.90;;;;;;5010093;28;20045;-59
2021/08/31 02:03:57;;;;;;;24.50;17.33;;;13.10;99.90;;;;;;5010263;28;20505;-58
2021/08/31 02:06:23;;;;;;;25.45;17.17;;;13.20;99.90;;;;;;5003817;28;20085;-54
2021/08/31 02:08:49;;;;;;;24.98;18.75;;;13.30;99.90;;;;;;5010698;28;20033;-57
2021/08/31 02:11:15;;;;;;;24.67;17.77;;;13.30;99.90;;;;;;5007922;28;20030;-58
2021/08/31 02:13:40;;;;;;;25.60;17.85;;;13.30;99.90;;;;;;5010342;28;20026;-52
2021/08/31 02:16:08;;;;;;;29.27;17.65;;;13.40;99.90;;;;;;5009064;28;20092;-59
2021/08/31 02:18:38;;;;;;;29.05;18.88;;;13.40;99.90;;;;;;5009164;28;20033;-57
2021/08/31 02:21:08;;;;;;;26.67;17.40;;;13.40;99.90;;;;;;5027423;23;20050;-58
2021/08/31 02:23:36;;;;;;;27.80;18.40;;;13.30;99.90;;;;;;4992729;28;20037;-57
2021/08/31 02:26:01;;;;;;;25.45;18.60;;;13.30;99.90;;;;;;5004329;28;20029;-59
2021/08/31 02:28:27;;;;;;;22.92;15.85;;;13.30;99.90;;;;;;5009473;28;20114;-59
2021/08/31 02:30:52;;;;;;;21.40;13.25;;;13.20;99.90;;;;;;5007816;28;20041;-59
2021/08/31 02:33:18;;;;;;;15.27;11.85;;;13.20;99.90;;;;;;5003253;28;20536;-59
2021/08/31 02:35:44;;;;;;;11.63;9.65;;;13.10;99.90;;;;;;5010081;28;20389;-58
2021/08/31 02:38:09;;;;;;;15.32;10.25;;;13.00;99.90;;;;;;5010063;28;20045;-60
2021/08/31 02:40:35;;;;;;;13.63;10.60;;;12.90;99.90;;;;;;5004707;28;20069;-57
2021/08/31 02:43:01;;;;;;;14.98;10.52;;;12.80;99.90;;;;;;5010278;28;20779;-58
2021/08/31 02:45:26;;;;;;;15.45;11.30;;;12.70;99.90;;;;;;5009342;28;20021;-57
2021/08/31 02:47:52;;;;;;;16.85;11.90;;;12.60;99.90;;;;;;5007964;28;20492;-57
2021/08/31 02:50:18;;;;;;;12.88;11.00;;;12.60;99.90;;;;;;5006568;28;20042;-59
2021/08/31 02:52:48;;;;;;;14.57;11.65;;;12.50;99.90;;;;;;5005449;28;20018;-60
2021/08/31 02:55:14;;;;;;;21.73;13.27;;;12.40;99.90;;;;;;5008916;28;20029;-58
2021/08/31 02:57:40;;;;;;;25.42;16.45;;;12.30;99.90;;;;;;5010010;28;20042;-53
2021/08/31 03:00:07;;;;;;;36.20;22.70;;;12.30;99.90;;;;;;5007118;28;20518;-59
2021/08/31 03:02:33;;;;;;;37.58;21.65;;;12.30;99.90;;;;;;5009435;28;20156;-59
2021/08/31 03:04:58;;;;;;;38.58;21.38;;;12.40;99.90;;;;;;4993108;28;20121;-58
2021/08/31 03:07:24;;;;;;;41.13;24.02;;;12.40;99.90;;;;;;5009078;28;20037;-59
2021/08/31 03:09:50;;;;;;;38.97;23.45;;;12.40;99.90;;;;;;5009463;28;20026;-56
2021/08/31 03:12:16;;;;;;;41.90;25.10;;;12.40;99.90;;;;;;5011347;28;20034;-58
2021/08/31 03:14:41;;;;;;;39.13;25.17;;;12.40;99.90;;;;;;5013046;28;20507;-49
2021/08/31 03:17:07;;;;;;;38.42;23.23;;;12.40;99.90;;;;;;5012311;28;20496;-57
2021/08/31 03:19:33;;;;;;;34.40;20.63;;;12.30;99.90;;;;;;5012470;28;20485;-54
2021/08/31 03:22:00;;;;;;;28.15;17.63;;;12.30;99.90;;;;;;5011827;28;20040;-57
2021/08/31 03:24:27;;;;;;;29.33;16.75;;;12.20;99.90;;;;;;5011354;28;20022;-57
2021/08/31 03:26:53;;;;;;;22.88;15.45;;;12.20;99.90;;;;;;5013539;28;20022;-57
2021/08/31 03:29:19;;;;;;;21.48;16.55;;;12.10;99.90;;;;;;5013591;28;20447;-58
2021/08/31 03:31:45;;;;;;;27.10;17.83;;;12.10;99.90;;;;;;5012283;28;20042;-57
2021/08/31 03:34:10;;;;;;;23.92;16.98;;;12.10;99.90;;;;;;5012267;28;20491;-57
2021/08/31 03:36:36;;;;;;;24.67;17.35;;;12.10;99.90;;;;;;5009022;28;20027;-55
2021/08/31 03:39:03;;;;;;;30.20;18.80;;;12.10;99.90;;;;;;5013175;28;20600;-57
2021/08/31 03:41:29;;;;;;;26.60;18.63;;;12.10;99.90;;;;;;5011981;28;20034;-58
2021/08/31 03:43:55;;;;;;;34.40;20.17;;;12.10;99.90;;;;;;5011982;28;20604;-57
2021/08/31 03:46:20;;;;;;;41.67;23.48;;;12.20;99.90;;;;;;5010834;28;20029;-59
2021/08/31 03:48:46;;;;;;;38.20;23.45;;;12.30;99.90;;;;;;5010683;28;20048;-58
2021/08/31 03:51:11;;;;;;;34.90;21.42;;;12.40;99.90;;;;;;5006450;28;20025;-58
2021/08/31 03:53:37;;;;;;;35.90;21.80;;;12.50;99.90;;;;;;5009865;28;20404;-55
2021/08/31 03:56:03;;;;;;;32.00;20.85;;;12.50;99.90;;;;;;5012696;28;20026;-58
2021/08/31 03:58:28;;;;;;;32.20;19.98;;;12.50;99.90;;;;;;5011188;28;20029;-57
2021/08/31 04:00:54;;;;;;;43.92;25.75;;;12.50;99.90;;;;;;5011884;28;20021;-56
2021/08/31 04:03:20;;;;;;;43.40;25.92;;;12.60;99.90;;;;;;4993259;28;20021;-57
2021/08/31 04:05:45;;;;;;;46.03;29.08;;;12.70;99.90;;;;;;5012329;28;20030;-57
2021/08/31 04:08:11;;;;;;;47.88;28.80;;;12.80;99.90;;;;;;5007459;28;20049;-57
2021/08/31 04:10:37;;;;;;;45.50;26.67;;;12.90;99.90;;;;;;5009809;28;20564;-56
2021/08/31 04:13:06;;;;;;;45.03;27.75;;;13.00;99.90;;;;;;5012155;28;20030;-57
2021/08/31 04:15:31;;;;;;;44.53;26.20;;;13.00;99.90;;;;;;5009209;28;20049;-56
2021/08/31 04:17:57;;;;;;;37.78;23.08;;;13.00;99.90;;;;;;5008085;28;20029;-57
2021/08/31 04:20:22;;;;;;;39.55;23.15;;;13.10;99.90;;;;;;5008984;28;20089;-59
2021/08/31 04:22:48;;;;;;;41.78;22.98;;;13.10;99.90;;;;;;5004371;28;20030;-57
2021/08/31 04:25:14;;;;;;;42.22;25.05;;;13.00;99.90;;;;;;5011535;28;20515;-56
2021/08/31 04:27:39;;;;;;;42.45;26.08;;;13.10;99.90;;;;;;5011790;28;20048;-57
2021/08/31 04:30:05;;;;;;;44.63;27.27;;;13.10;99.90;;;;;;5008912;28;20060;-58
2021/08/31 04:32:31;;;;;;;43.38;28.52;;;13.20;99.90;;;;;;5012307;28;20116;-56
2021/08/31 04:35:02;;;;;;;44.35;28.33;;;13.20;99.90;;;;;;5010269;28;20097;-57
2021/08/31 04:37:28;;;;;;;47.10;28.38;;;13.30;99.90;;;;;;5010446;28;20030;-58
2021/08/31 04:39:53;;;;;;;46.65;30.20;;;13.30;99.90;;;;;;5007648;28;20037;-57
2021/08/31 04:42:19;;;;;;;51.28;31.77;;;13.30;99.90;;;;;;5007637;28;20083;-57
2021/08/31 04:44:44;;;;;;;47.80;31.17;;;13.30;99.90;;;;;;5010651;28;20097;-54
2021/08/31 04:47:10;;;;;;;53.83;31.27;;;13.40;99.90;;;;;;5008531;28;20030;-58
2021/08/31 04:49:35;;;;;;;48.55;30.02;;;13.40;99.90;;;;;;5009221;28;20041;-58
2021/08/31 04:52:01;;;;;;;48.13;30.42;;;13.40;99.90;;;;;;5009084;28;20030;-55
2021/08/31 04:54:26;;;;;;;55.13;31.38;;;13.40;99.90;;;;;;5011413;28;20493;-58
2021/08/31 04:56:52;;;;;;;49.40;31.92;;;13.40;99.90;;;;;;5010851;28;20115;-56
2021/08/31 04:59:18;;;;;;;56.22;32.25;;;13.50;99.90;;;;;;5011231;28;20061;-57
2021/08/31 05:01:44;;;;;;;48.30;30.80;;;13.50;99.90;;;;;;5011062;28;20025;-57
2021/08/31 05:04:11;;;;;;;46.08;30.23;;;13.50;99.90;;;;;;5011210;28;20723;-58
2021/08/31 05:06:36;;;;;;;49.50;31.48;;;13.50;99.90;;;;;;5007047;28;20131;-59
2021/08/31 05:09:02;;;;;;;49.28;31.88;;;13.50;99.90;;;;;;5011571;28;20064;-58
2021/08/31 05:11:28;;;;;;;50.80;32.78;;;13.60;99.90;;;;;;5011263;28;20029;-59
2021/08/31 05:13:53;;;;;;;51.15;31.85;;;13.60;99.90;;;;;;5008647;28;20695;-58
2021/08/31 05:16:19;;;;;;;48.40;32.00;;;13.70;99.90;;;;;;5008590;28;20515;-58
2021/08/31 05:18:45;;;;;;;45.22;31.90;;;13.80;99.90;;;;;;5009396;28;20034;-56
2021/08/31 05:21:11;;;;;;;45.97;31.08;;;13.80;99.90;;;;;;5010086;28;20045;-57
2021/08/31 05:23:36;;;;;;;40.65;28.52;;;13.90;99.90;;;;;;5004825;28;20477;-56
2021/08/31 05:26:03;;;;;;;42.78;30.45;;;14.00;99.90;;;;;;5011245;28;20037;-50
2021/08/31 05:28:28;;;;;;;44.85;29.40;;;14.10;99.90;;;;;;5011321;28;20038;-55
2021/08/31 05:30:54;;;;;;;39.72;26.70;;;14.20;99.90;;;;;;5010281;28;20036;-57
2021/08/31 05:33:19;;;;;;;34.63;25.65;;;14.30;99.90;;;;;;5010592;28;20075;-57
2021/08/31 05:35:45;;;;;;;35.25;25.85;;;14.40;99.90;;;;;;5008861;28;20026;-57
2021/08/31 05:38:10;;;;;;;43.40;26.52;;;14.50;99.90;;;;;;5010094;28;20029;-59
2021/08/31 05:40:36;;;;;;;39.03;27.30;;;14.60;99.90;;;;;;5000979;28;20493;-59
2021/08/31 05:43:02;;;;;;;22.80;15.95;;;14.70;99.90;;;;;;5008359;28;20044;-59
2021/08/31 05:45:32;;;;;;;27.00;16.27;;;14.80;99.90;;;;;;5005462;28;20070;-59
2021/08/31 05:47:58;;;;;;;23.08;14.75;;;14.80;99.90;;;;;;5010565;28;20440;-57
2021/08/31 05:50:23;;;;;;;19.35;13.40;;;14.70;99.90;;;;;;5005587;28;20026;-58
2021/08/31 05:52:49;;;;;;;19.90;14.38;;;14.70;99.90;;;;;;5005395;28;20030;-59
2021/08/31 05:55:15;;;;;;;19.02;14.45;;;14.70;99.90;;;;;;5008885;28;20406;-59
2021/08/31 05:57:40;;;;;;;22.02;14.75;;;14.80;99.90;;;;;;5008563;28;20030;-60
2021/08/31 06:00:11;;;;;;;23.65;15.18;;;14.80;99.90;;;;;;5009757;28;20029;-58
2021/08/31 06:02:38;;;;;;;22.40;14.73;;;14.90;99.90;;;;;;5007528;28;20519;-59
2021/08/31 06:05:05;;;;;;;19.13;14.52;;;15.10;99.90;;;;;;5009978;28;20673;-59
2021/08/31 06:07:34;;;;;;;21.10;13.52;;;15.20;99.90;;;;;;5008850;28;20034;-58
2021/08/31 06:09:59;;;;;;;28.15;19.88;;;15.40;99.90;;;;;;5009877;28;20109;-58
2021/08/31 06:12:25;;;;;;;28.75;17.33;;;15.70;99.90;;;;;;5010251;28;20101;-60
2021/08/31 06:14:51;;;;;;;18.20;13.20;;;16.00;99.90;;;;;;5010628;28;20018;-60
2021/08/31 06:17:19;;;;;;;18.63;13.02;;;16.30;99.90;;;;;;5003607;28;20041;-60
2021/08/31 06:19:46;;;;;;;19.15;13.65;;;16.40;99.90;;;;;;4983830;28;20057;-59
2021/08/31 06:22:11;;;;;;;19.08;11.65;;;16.40;99.90;;;;;;5007475;28;20128;-57
2021/08/31 06:24:37;;;;;;;18.33;12.60;;;16.70;99.90;;;;;;5009266;28;20029;-60
2021/08/31 06:27:04;;;;;;;16.45;11.55;;;17.10;99.90;;;;;;5008387;28;20556;-60
2021/08/31 06:29:30;;;;;;;15.95;12.35;;;17.30;99.90;;;;;;5008727;28;20038;-58
2021/08/31 06:31:56;;;;;;;19.60;13.35;;;17.90;99.90;;;;;;5008463;28;20026;-58
2021/08/31 06:34:21;;;;;;;17.30;12.52;;;18.20;99.90;;;;;;5009733;28;20080;-60
2021/08/31 06:36:47;;;;;;;27.48;13.10;;;18.50;99.90;;;;;;5006157;28;20062;-60
2021/08/31 06:39:13;;;;;;;15.48;12.23;;;18.80;99.90;;;;;;5004388;28;20068;-58
2021/08/31 06:41:39;;;;;;;18.88;12.93;;;19.60;99.90;;;;;;5009061;28;20025;-61
2021/08/31 06:44:05;;;;;;;16.98;13.20;;;20.70;99.90;;;;;;4993558;28;20808;-60
2021/08/31 06:46:31;;;;;;;15.82;11.52;;;21.10;99.90;;;;;;5010363;28;20113;-59
2021/08/31 06:48:56;;;;;;;21.35;11.82;;;22.50;99.90;;;;;;5010197;28;20046;-59
2021/08/31 06:51:22;;;;;;;17.33;13.27;;;23.30;99.90;;;;;;5005316;28;20028;-58
2021/08/31 06:53:47;;;;;;;14.20;11.98;;;23.50;99.00;;;;;;5009809;28;20087;-60
2021/08/31 06:56:13;;;;;;;16.63;11.70;;;22.80;99.20;;;;;;5006110;28;20106;-60
2021/08/31 06:58:38;;;;;;;15.48;12.57;;;22.70;99.90;;;;;;5010086;28;20022;-57
2021/08/31 07:01:04;;;;;;;16.40;13.32;;;23.10;98.70;;;;;;5011831;28;20032;-61
2021/08/31 07:03:30;;;;;;;20.50;11.63;;;23.40;99.00;;;;;;5012244;28;20034;-58
2021/08/31 07:05:55;;;;;;;12.00;9.80;;;24.30;98.40;;;;;;5011399;28;20096;-61
2021/08/31 07:08:21;;;;;;;12.07;9.15;;;24.60;96.50;;;;;;5008778;28;20030;-57
2021/08/31 07:10:46;;;;;;;16.67;9.05;;;24.00;97.70;;;;;;5010229;28;20034;-56
2021/08/31 07:13:14;;;;;;;15.57;9.40;;;24.50;97.10;;;;;;5011730;28;20022;-61
2021/08/31 07:15:40;;;;;;;16.58;11.13;;;24.50;97.30;;;;;;5011527;28;20018;-60
2021/08/31 07:18:06;;;;;;;15.18;13.32;;;24.40;97.00;;;;;;5013002;28;20021;-57
2021/08/31 07:20:31;;;;;;;15.30;13.68;;;24.80;96.40;;;;;;4995256;28;20051;-59
2021/08/31 07:22:57;;;;;;;23.75;18.92;;;24.80;96.30;;;;;;5010975;28;20032;-57
2021/08/31 07:25:23;;;;;;;28.08;21.25;;;23.60;97.90;;;;;;5013329;28;20477;-60
2021/08/31 07:27:48;;;;;;;26.02;21.33;;;23.10;98.10;;;;;;5011209;28;20022;-60
2021/08/31 07:30:14;;;;;;;25.80;21.52;;;22.40;99.40;;;;;;5012206;28;20552;-58
2021/08/31 07:32:39;;;;;;;26.00;20.83;;;21.70;99.90;;;;;;5012439;28;20488;-61
2021/08/31 07:35:06;;;;;;;28.33;21.35;;;21.90;99.90;;;;;;5012591;28;20026;-60
2021/08/31 07:37:32;;;;;;;30.38;22.65;;;22.10;99.90;;;;;;5010847;28;20505;-56
2021/08/31 07:39:57;;;;;;;33.65;23.40;;;22.20;99.90;;;;;;5011630;28;20109;-58
2021/08/31 07:42:23;;;;;;;34.47;26.10;;;22.50;99.90;;;;;;5012019;28;20538;-58
2021/08/31 07:44:49;;;;;;;33.95;24.05;;;22.20;99.90;;;;;;5012409;28;20469;-59
2021/08/31 07:47:15;;;;;;;38.25;24.98;;;22.20;99.90;;;;;;5008470;28;20389;-60
2021/08/31 07:49:41;;;;;;;34.10;26.52;;;21.70;99.90;;;;;;5007621;28;20097;-58
2021/08/31 07:52:07;;;;;;;34.58;24.35;;;21.40;99.90;;;;;;5007911;28;20129;-59
2021/08/31 07:54:32;;;;;;;31.42;25.70;;;21.30;99.90;;;;;;5009573;28;20112;-58
2021/08/31 07:56:58;;;;;;;34.95;25.42;;;20.70;99.90;;;;;;5008958;28;20488;-55
2021/08/31 07:59:24;;;;;;;33.90;24.60;;;20.00;99.90;;;;;;5009689;28;20053;-59
2021/08/31 08:01:49;;;;;;;31.42;24.30;;;19.80;99.90;;;;;;5011343;28;20049;-59
2021/08/31 08:04:15;;;;;;;34.35;24.13;;;19.70;99.90;;;;;;5009926;28;20030;-58
2021/08/31 08:06:42;;;;;;;39.03;25.20;;;19.60;99.90;;;;;;5008498;28;20105;-60
2021/08/31 08:09:07;;;;;;;37.40;24.65;;;19.40;99.90;;;;;;5012233;28;20032;-59
2021/08/31 08:11:33;;;;;;;32.15;24.95;;;19.10;99.90;;;;;;5010546;28;20089;-58
2021/08/31 08:13:58;;;;;;;36.03;24.05;;;19.10;99.90;;;;;;5009851;28;20121;-50
2021/08/31 08:16:24;;;;;;;33.60;24.75;;;19.10;99.90;;;;;;5008723;28;20029;-58
2021/08/31 08:18:50;;;;;;;32.28;23.40;;;19.30;99.90;;;;;;4996905;28;20497;-58
2021/08/31 08:21:16;;;;;;;32.25;22.85;;;20.40;99.90;;;;;;4993976;28;20053;-58
2021/08/31 08:23:42;;;;;;;34.67;24.33;;;21.00;99.90;;;;;;5010986;28;20562;-58
2021/08/31 08:26:09;;;;;;;38.63;23.20;;;21.00;99.90;;;;;;5011332;28;20108;-60
2021/08/31 08:28:36;;;;;;;33.55;24.30;;;21.60;99.90;;;;;;5008813;28;20079;-59
2021/08/31 08:31:01;;;;;;;28.48;22.83;;;22.00;99.90;;;;;;5008237;28;20101;-58
2021/08/31 08:33:27;;;;;;;29.48;22.83;;;22.30;99.90;;;;;;5007140;28;20113;-58
2021/08/31 08:35:53;;;;;;;34.13;23.45;;;22.20;99.90;;;;;;5007823;28;20022;-60
2021/08/31 08:38:19;;;;;;;35.45;25.10;;;22.10;99.90;;;;;;5009010;28;20029;-60
2021/08/31 08:40:45;;;;;;;33.15;24.65;;;21.90;99.90;;;;;;5004404;28;20029;-58
2021/08/31 08:43:14;;;;;;;32.83;24.85;;;22.00;99.90;;;;;;5005530;28;20493;-61
2021/08/31 08:45:45;;;;;;;28.83;23.48;;;22.40;99.90;;;;;;5010248;28;20032;-60
2021/08/31 08:48:22;;;;;;;30.38;22.67;;;22.90;99.90;;;;;;5008543;28;20108;-54
2021/08/31 08:50:50;;;;;;;30.95;22.50;;;23.10;99.90;;;;;;5006245;28;20026;-55
2021/08/31 08:53:16;;;;;;;33.45;24.17;;;22.80;99.90;;;;;;5008784;28;20029;-58
2021/08/31 08:55:42;;;;;;;33.33;22.63;;;22.70;99.90;;;;;;5003724;28;20022;-54
2021/08/31 08:58:07;;;;;;;31.42;24.90;;;22.30;99.90;;;;;;5009529;28;20444;-56
2021/08/31 09:00:55;;;;;;;32.67;24.67;;;21.60;99.90;;;;;;5010799;28;20053;-59
2021/08/31 09:03:23;;;;;;;36.20;24.50;;;21.10;99.90;;;;;;5009081;28;20105;-59
2021/08/31 09:06:02;;;;;;;35.28;26.20;;;20.80;99.90;;;;;;5008867;28;20104;-58
2021/08/31 09:08:27;;;;;;;39.38;24.20;;;20.50;99.90;;;;;;5007412;28;20036;-59
2021/08/31 09:10:53;;;;;;;34.15;23.10;;;20.60;99.90;;;;;;5007642;28;20120;-55
2021/08/31 09:13:21;;;;;;;37.00;22.15;;;20.70;99.90;;;;;;5001653;28;20057;-59
2021/08/31 09:15:46;;;;;;;40.28;25.67;;;20.90;99.90;;;;;;5005083;28;20022;-58
2021/08/31 09:18:15;;;;;;;39.05;25.38;;;20.80;99.90;;;;;;5010481;28;20022;-59
2021/08/31 09:20:53;;;;;;;39.67;26.23;;;20.60;99.90;;;;;;4989041;28;20091;-60
2021/08/31 09:23:21;;;;;;;47.00;28.20;;;20.30;99.90;;;;;;5004807;28;20490;-57
2021/08/31 09:25:50;;;;;;;43.30;27.90;;;20.10;99.90;;;;;;5008830;28;20030;-58
2021/08/31 09:28:34;;;;;;;50.17;28.70;;;19.70;99.90;;;;;;5010271;28;20065;-60
2021/08/31 09:31:06;;;;;;;45.58;27.83;;;19.60;99.90;;;;;;5008310;28;20021;-59
2021/08/31 09:33:40;;;;;;;45.28;27.70;;;19.70;99.90;;;;;;5008767;28;20061;-58
2021/08/31 09:36:18;;;;;;;42.53;26.27;;;19.60;99.90;;;;;;5003323;28;20026;-60
2021/08/31 09:38:48;;;;;;;44.47;27.95;;;20.30;99.90;;;;;;5006809;28;20101;-60
2021/08/31 09:41:38;;;;;;;43.47;26.23;;;20.80;99.90;;;;;;5004533;28;20030;-60
2021/08/31 09:44:32;;;;;;;43.72;27.30;;;21.50;99.90;;;;;;4999828;28;20029;-59
2021/08/31 09:47:00;;;;;;;34.77;24.70;;;21.90;99.90;;;;;;5002567;28;20037;-56
2021/08/31 09:49:37;;;;;;;37.88;24.20;;;22.20;99.90;;;;;;5008030;28;20771;-58
2021/08/31 09:52:15;;;;;;;39.30;26.65;;;22.30;99.90;;;;;;5007435;28;20389;-60
2021/08/31 09:54:50;;;;;;;41.00;26.90;;;22.10;99.90;;;;;;5009437;28;20057;-61
2021/08/31 09:57:37;;;;;;;39.70;26.40;;;21.60;99.90;;;;;;5009438;28;20020;-58
2021/08/31 10:00:09;;;;;;;44.05;27.77;;;21.60;99.90;;;;;;5007451;28;20029;-58
2021/08/31 10:02:34;;;;;;;37.40;23.98;;;20.90;99.90;;;;;;5009097;28;20030;-58
2021/08/31 10:05:00;;;;;;;38.63;24.55;;;21.10;99.90;;;;;;5007142;28;20101;-58
2021/08/31 10:07:26;;;;;;;37.10;23.33;;;21.40;99.90;;;;;;5004595;28;20043;-58
2021/08/31 10:09:53;;;;;;;43.97;24.75;;;21.40;99.90;;;;;;5009356;28;20612;-58
2021/08/31 10:12:21;;;;;;;42.30;26.02;;;20.80;99.90;;;;;;5008677;28;20388;-57
2021/08/31 10:14:54;;;;;;;42.80;26.20;;;20.30;99.90;;;;;;5008308;28;20014;-55
2021/08/31 10:17:26;;;;;;;40.67;24.77;;;19.70;99.90;;;;;;5007455;28;20024;-58
2021/08/31 10:19:53;;;;;;;46.08;26.10;;;19.70;99.90;;;;;;4987674;28;20026;-56
2021/08/31 10:22:19;;;;;;;42.22;24.95;;;19.80;99.90;;;;;;5012884;28;20022;-57
2021/08/31 10:24:46;;;;;;;33.60;22.70;;;19.70;99.90;;;;;;5013544;28;20388;-53
2021/08/31 10:27:29;;;;;;;38.80;23.73;;;19.40;99.90;;;;;;5013619;28;20496;-58
2021/08/31 10:30:20;;;;;;;37.40;23.30;;;18.90;99.90;;;;;;5005335;28;20063;-59
2021/08/31 10:32:51;;;;;;;33.05;21.70;;;19.30;99.90;;;;;;5017058;28;20036;-55
2021/08/31 10:35:29;;;;;;;36.65;21.92;;;19.30;99.90;;;;;;5010768;28;20014;-60
2021/08/31 10:37:55;;;;;;;30.70;20.80;;;19.50;99.90;;;;;;5008350;28;20017;-57
2021/08/31 10:40:35;;;;;;;29.58;18.65;;;19.20;99.90;;;;;;5005540;28;20091;-59
2021/08/31 10:43:03;;;;;;;30.05;18.17;;;19.40;99.90;;;;;;5011912;28;20022;-59
2021/08/31 10:45:34;;;;;;;30.10;17.52;;;19.50;99.90;;;;;;5006408;28;20050;-55
2021/08/31 10:48:23;;;;;;;27.35;17.92;;;19.50;99.90;;;;;;5007234;28;20029;-56
2021/08/31 10:51:17;;;;;;;29.10;17.95;;;19.30;99.90;;;;;;5010243;28;20108;-51
2021/08/31 10:53:48;;;;;;;23.58;16.98;;;19.60;99.90;;;;;;5005397;28;20556;-58
2021/08/31 10:56:22;;;;;;;26.52;18.40;;;19.90;99.90;;;;;;5013559;28;20061;-56
2021/08/31 10:59:00;;;;;;;27.27;16.90;;;19.90;99.90;;;;;;5004700;28;20468;-58
2021/08/31 11:01:35;;;;;;;24.98;17.10;;;20.00;99.90;;;;;;5006899;28;20112;-60
2021/08/31 11:04:00;;;;;;;23.92;16.88;;;19.90;99.90;;;;;;5012501;28;20017;-51
2021/08/31 11:06:34;;;;;;;26.50;16.27;;;20.20;99.90;;;;;;5011229;28;20041;-56
2021/08/31 11:09:12;;;;;;;26.13;17.50;;;20.60;99.90;;;;;;5014436;28;20450;-55
2021/08/31 11:11:40;;;;;;;25.52;16.40;;;20.40;99.90;;;;;;5011489;28;20391;-59
2021/08/31 11:14:05;;;;;;;24.83;16.52;;;20.20;99.90;;;;;;5009161;28;20034;-58
2021/08/31 11:16:37;;;;;;;24.63;16.73;;;20.10;99.90;;;;;;5010876;28;20029;-58
2021/08/31 11:19:21;;;;;;;22.52;16.60;;;20.20;99.90;;;;;;5010140;28;20022;-55
2021/08/31 11:21:49;;;;;;;22.08;14.50;;;20.10;99.90;;;;;;4992482;28;20038;-56
2021/08/31 11:24:14;;;;;;;22.33;17.25;;;20.00;99.90;;;;;;5012532;28;20097;-58
2021/08/31 11:26:40;;;;;;;23.67;14.73;;;20.10;99.90;;;;;;5007635;28;20520;-54
2021/08/31 11:29:08;;;;;;;23.80;15.90;;;20.00;99.90;;;;;;5011890;28;20048;-55
2021/08/31 11:31:33;;;;;;;19.60;14.30;;;20.20;99.90;;;;;;5009226;28;20129;-59
2021/08/31 11:33:59;;;;;;;20.33;15.50;;;20.30;99.90;;;;;;5010710;28;20105;-58
2021/08/31 11:36:28;;;;;;;25.10;16.00;;;20.20;99.90;;;;;;5010165;28;20045;-58
2021/08/31 11:39:01;;;;;;;19.23;14.27;;;20.20;99.90;;;;;;5011050;28;20018;-57
2021/08/31 11:41:33;;;;;;;21.83;14.23;;;20.50;99.50;;;;;;5011279;28;20050;-59
2021/08/31 11:44:14;;;;;;;18.33;11.80;;;20.70;99.90;;;;;;5011369;28;20273;-59
2021/08/31 11:46:41;;;;;;;18.23;13.63;;;20.70;99.20;;;;;;5010626;28;20038;-53
2021/08/31 11:49:11;;;;;;;18.95;13.70;;;20.70;99.40;;;;;;5011038;28;20080;-57
2021/08/31 11:51:38;;;;;;;24.17;12.32;;;20.70;99.90;;;;;;5004963;28;20033;-58
2021/08/31 11:54:06;;;;;;;17.05;13.10;;;20.50;99.90;;;;;;5008004;28;20026;-56
2021/08/31 11:56:32;;;;;;;17.65;12.57;;;20.70;99.60;;;;;;5010455;28;20112;-54
2021/08/31 11:58:58;;;;;;;14.40;10.35;;;21.00;99.20;;;;;;5007796;28;20499;-58
2021/08/31 12:01:31;;;;;;;15.27;10.88;;;20.90;97.90;;;;;;5008749;28;20045;-58
2021/08/31 12:04:19;;;;;;;14.93;11.18;;;21.10;98.20;;;;;;5008548;28;20046;-59
2021/08/31 12:06:47;;;;;;;16.27;10.73;;;21.00;97.10;;;;;;5009253;28;20037;-56
2021/08/31 12:09:20;;;;;;;24.52;14.98;;;20.90;98.70;;;;;;5009113;28;20018;-55
2021/08/31 12:11:47;;;;;;;21.53;15.50;;;20.80;99.90;;;;;;5005616;28;20030;-54
2021/08/31 12:14:19;;;;;;;22.92;15.57;;;21.00;99.90;;;;;;5009233;28;20019;-56
2021/08/31 12:16:46;;;;;;;28.50;17.20;;;20.90;99.90;;;;;;5012083;28;20472;-58
2021/08/31 12:19:20;;;;;;;25.45;15.48;;;20.80;99.90;;;;;;5006396;28;20029;-54
2021/08/31 12:22:09;;;;;;;17.70;12.85;;;20.70;99.90;;;;;;5007577;28;20038;-56
2021/08/31 12:24:35;;;;;;;20.02;12.82;;;20.90;99.90;;;;;;5010722;28;20052;-57
2021/08/31 12:27:12;;;;;;;18.05;10.10;;;21.10;99.00;;;;;;5007997;28;20104;-57
2021/08/31 12:29:53;;;;;;;17.23;11.20;;;21.00;98.00;;;;;;5011662;28;20080;-59
2021/08/31 12:32:29;;;;;;;18.02;11.35;;;21.10;97.40;;;;;;5012611;28;20053;-58